sensor_id;sensor_type;location;lat;lon;timestamp;temperature;humidity
8988;DHT22;4529;51.360;12.474;2023-05-24T00:02:30;13.10;99.90
8988;DHT22;4529;51.360;12.474;2023-05-24T00:07:33;13.00;99.90
8988;DHT22;4529;51.360;12.474;2023-05-24T00:12:37;12.90;99.90
8988;DHT22;4529;51.360;12.474;2023-05-24T00:17:40;12.90;99.90
8988;DHT22;4529;51.360;12.474;2023-05-24T00:22:44;12.80;99.90
8988;DHT22;4529;51.360;12.474;2023-05-24T00:27:47;12.80;99.90
8988;DHT22;4529;51.360;12.474;2023-05-24T00:32:51;12.70;99.90
8988;DHT22;4529;51.360;12.474;2023-05-24T00:37:54;12.70;99.90
8988;DHT22;4529;51.360;12.474;2023-05-24T00:42:58;12.70;99.90
8988;DHT22;4529;51.360;12.474;2023-05-24T00:48:01;12.60;99.90
8988;DHT22;4529;51.360;12.474;2023-05-24T00:53:05;12.60;99.90
8988;DHT22;4529;51.360;12.474;2023-05-24T00:58:13;12.60;99.90
8988;DHT22;4529;51.360;12.474;2023-05-24T01:03:17;12.60;99.90
8988;DHT22;4529;51.360;12.474;2023-05-24T01:08:31;12.60;99.90
8988;DHT22;4529;51.360;12.474;2023-05-24T01:14:08;12.60;99.90
8988;DHT22;4529;51.360;12.474;2023-05-24T01:19:15;12.50;99.90
8988;DHT22;4529;51.360;12.474;2023-05-24T01:24:43;12.50;99.90
8988;DHT22;4529;51.360;12.474;2023-05-24T01:29:44;12.60;99.90
8988;DHT22;4529;51.360;12.474;2023-05-24T01:34:47;12.40;99.90
8988;DHT22;4529;51.360;12.474;2023-05-24T01:39:51;12.40;99.90
8988;DHT22;4529;51.360;12.474;2023-05-24T01:45:00;12.50;99.90
8988;DHT22;4529;51.360;12.474;2023-05-24T01:50:26;12.40;99.90
8988;DHT22;4529;51.360;12.474;2023-05-24T01:55:16;12.40;99.90
8988;DHT22;4529;51.360;12.474;2023-05-24T02:00:20;12.40;99.90
8988;DHT22;4529;51.360;12.474;2023-05-24T02:05:24;12.40;99.90
8988;DHT22;4529;51.360;12.474;2023-05-24T02:10:28;12.40;99.90
8988;DHT22;4529;51.360;12.474;2023-05-24T02:15:32;12.30;99.90
8988;DHT22;4529;51.360;12.474;2023-05-24T02:20:36;12.30;99.90
8988;DHT22;4529;51.360;12.474;2023-05-24T02:25:40;12.30;99.90
8988;DHT22;4529;51.360;12.474;2023-05-24T02:30:43;12.30;99.90
8988;DHT22;4529;51.360;12.474;2023-05-24T02:35:47;12.30;99.90
8988;DHT22;4529;51.360;12.474;2023-05-24T02:40:50;12.20;99.90
8988;DHT22;4529;51.360;12.474;2023-05-24T02:45:54;12.20;99.90
8988;DHT22;4529;51.360;12.474;2023-05-24T02:50:57;12.30;99.90
8988;DHT22;4529;51.360;12.474;2023-05-24T02:56:00;12.30;99.90
8988;DHT22;4529;51.360;12.474;2023-05-24T03:01:04;12.20;99.90
8988;DHT22;4529;51.360;12.474;2023-05-24T03:06:08;12.20;99.90
8988;DHT22;4529;51.360;12.474;2023-05-24T03:11:12;12.10;99.90
8988;DHT22;4529;51.360;12.474;2023-05-24T03:16:15;12.20;99.90
8988;DHT22;4529;51.360;12.474;2023-05-24T03:21:18;12.10;99.90
8988;DHT22;4529;51.360;12.474;2023-05-24T03:26:22;12.10;99.90
8988;DHT22;4529;51.360;12.474;2023-05-24T03:31:25;12.00;99.90
8988;DHT22;4529;51.360;12.474;2023-05-24T03:36:29;12.00;99.90
8988;DHT22;4529;51.360;12.474;2023-05-24T03:41:32;12.00;99.90
8988;DHT22;4529;51.360;12.474;2023-05-24T03:46:36;12.00;99.90
8988;DHT22;4529;51.360;12.474;2023-05-24T03:51:40;12.00;99.90
8988;DHT22;4529;51.360;12.474;2023-05-24T03:56:43;12.00;99.90
8988;DHT22;4529;51.360;12.474;2023-05-24T04:01:47;12.00;99.90
8988;DHT22;4529;51.360;12.474;2023-05-24T04:06:50;12.00;99.90
8988;DHT22;4529;51.360;12.474;2023-05-24T04:11:54;12.00;99.90
8988;DHT22;4529;51.360;12.474;2023-05-24T04:16:57;11.90;99.90
8988;DHT22;4529;51.360;12.474;2023-05-24T04:22:01;11.90;99.90
8988;DHT22;4529;51.360;12.474;2023-05-24T04:27:09;11.90;99.90
8988;DHT22;4529;51.360;12.474;2023-05-24T04:32:12;12.00;99.90
8988;DHT22;4529;51.360;12.474;2023-05-24T04:37:16;12.00;99.90
8988;DHT22;4529;51.360;12.474;2023-05-24T04:42:20;11.90;99.90
8988;DHT22;4529;51.360;12.474;2023-05-24T04:47:23;11.90;99.90
8988;DHT22;4529;51.360;12.474;2023-05-24T04:52:26;11.90;99.90
8988;DHT22;4529;51.360;12.474;2023-05-24T04:57:30;11.90;99.90
8988;DHT22;4529;51.360;12.474;2023-05-24T05:02:33;11.90;99.90
8988;DHT22;4529;51.360;12.474;2023-05-24T05:07:37;12.00;99.90
8988;DHT22;4529;51.360;12.474;2023-05-24T05:12:40;12.00;99.90
8988;DHT22;4529;51.360;12.474;2023-05-24T05:17:44;12.00;99.90
8988;DHT22;4529;51.360;12.474;2023-05-24T05:22:47;12.10;99.90
8988;DHT22;4529;51.360;12.474;2023-05-24T05:27:51;12.10;99.90
8988;DHT22;4529;51.360;12.474;2023-05-24T05:32:54;12.00;99.90
8988;DHT22;4529;51.360;12.474;2023-05-24T05:37:58;11.50;99.90
8988;DHT22;4529;51.360;12.474;2023-05-24T05:43:01;11.40;99.90
8988;DHT22;4529;51.360;12.474;2023-05-24T05:48:05;11.40;99.90
8988;DHT22;4529;51.360;12.474;2023-05-24T05:53:08;11.40;99.90
8988;DHT22;4529;51.360;12.474;2023-05-24T05:58:11;11.30;99.90
8988;DHT22;4529;51.360;12.474;2023-05-24T06:03:15;11.50;99.90
8988;DHT22;4529;51.360;12.474;2023-05-24T06:08:18;11.60;99.90
8988;DHT22;4529;51.360;12.474;2023-05-24T06:13:22;11.70;99.90
8988;DHT22;4529;51.360;12.474;2023-05-24T06:18:26;11.90;99.90
8988;DHT22;4529;51.360;12.474;2023-05-24T06:23:30;11.90;99.90
8988;DHT22;4529;51.360;12.474;2023-05-24T06:28:34;12.00;99.90
8988;DHT22;4529;51.360;12.474;2023-05-24T06:33:38;12.00;99.90
8988;DHT22;4529;51.360;12.474;2023-05-24T06:38:43;12.10;99.90
8988;DHT22;4529;51.360;12.474;2023-05-24T06:43:47;12.20;99.90
8988;DHT22;4529;51.360;12.474;2023-05-24T06:48:51;12.30;99.90
8988;DHT22;4529;51.360;12.474;2023-05-24T06:53:55;12.40;99.90
8988;DHT22;4529;51.360;12.474;2023-05-24T06:59:04;12.50;99.90
8988;DHT22;4529;51.360;12.474;2023-05-24T07:04:08;12.50;99.90
8988;DHT22;4529;51.360;12.474;2023-05-24T07:09:11;12.50;99.90
8988;DHT22;4529;51.360;12.474;2023-05-24T07:14:14;12.50;99.90
8988;DHT22;4529;51.360;12.474;2023-05-24T07:19:18;12.70;99.90
8988;DHT22;4529;51.360;12.474;2023-05-24T07:24:21;12.70;99.90
8988;DHT22;4529;51.360;12.474;2023-05-24T07:29:25;12.80;99.90
8988;DHT22;4529;51.360;12.474;2023-05-24T07:34:28;12.90;99.90
8988;DHT22;4529;51.360;12.474;2023-05-24T07:39:31;13.00;99.90
8988;DHT22;4529;51.360;12.474;2023-05-24T07:44:35;13.20;99.90
8988;DHT22;4529;51.360;12.474;2023-05-24T07:49:38;13.20;99.90
8988;DHT22;4529;51.360;12.474;2023-05-24T07:54:42;13.30;99.90
8988;DHT22;4529;51.360;12.474;2023-05-24T07:59:45;13.40;99.90
8988;DHT22;4529;51.360;12.474;2023-05-24T08:04:49;13.40;99.90
8988;DHT22;4529;51.360;12.474;2023-05-24T08:09:52;13.30;99.90
8988;DHT22;4529;51.360;12.474;2023-05-24T08:14:56;13.30;99.90
8988;DHT22;4529;51.360;12.474;2023-05-24T08:19:59;13.40;99.90
8988;DHT22;4529;51.360;12.474;2023-05-24T08:25:04;14.40;99.90
8988;DHT22;4529;51.360;12.474;2023-05-24T08:30:07;14.30;99.90
8988;DHT22;4529;51.360;12.474;2023-05-24T08:35:11;14.30;99.90
8988;DHT22;4529;51.360;12.474;2023-05-24T08:40:14;14.20;99.90
8988;DHT22;4529;51.360;12.474;2023-05-24T08:45:18;14.10;99.90
8988;DHT22;4529;51.360;12.474;2023-05-24T08:50:21;14.10;99.90
8988;DHT22;4529;51.360;12.474;2023-05-24T08:55:24;14.10;99.90
8988;DHT22;4529;51.360;12.474;2023-05-24T09:00:28;14.30;99.90
8988;DHT22;4529;51.360;12.474;2023-05-24T09:05:31;14.80;99.90
8988;DHT22;4529;51.360;12.474;2023-05-24T09:10:35;14.80;99.90
8988;DHT22;4529;51.360;12.474;2023-05-24T09:15:38;14.70;99.90
8988;DHT22;4529;51.360;12.474;2023-05-24T09:20:42;14.50;99.90
8988;DHT22;4529;51.360;12.474;2023-05-24T09:25:46;14.40;99.90
8988;DHT22;4529;51.360;12.474;2023-05-24T09:30:58;14.40;99.90
8988;DHT22;4529;51.360;12.474;2023-05-24T09:36:01;14.80;99.90
8988;DHT22;4529;51.360;12.474;2023-05-24T09:41:07;15.30;99.90
8988;DHT22;4529;51.360;12.474;2023-05-24T09:46:15;14.90;99.90
8988;DHT22;4529;51.360;12.474;2023-05-24T09:51:15;14.70;99.90
8988;DHT22;4529;51.360;12.474;2023-05-24T09:56:19;14.60;99.90
8988;DHT22;4529;51.360;12.474;2023-05-24T10:01:23;14.50;99.90
8988;DHT22;4529;51.360;12.474;2023-05-24T10:06:31;14.60;99.90
8988;DHT22;4529;51.360;12.474;2023-05-24T10:11:34;14.60;99.90
8988;DHT22;4529;51.360;12.474;2023-05-24T10:16:37;14.80;99.90
8988;DHT22;4529;51.360;12.474;2023-05-24T10:21:41;14.80;99.90
8988;DHT22;4529;51.360;12.474;2023-05-24T10:26:44;14.90;99.90
8988;DHT22;4529;51.360;12.474;2023-05-24T10:31:48;14.80;99.90
8988;DHT22;4529;51.360;12.474;2023-05-24T10:36:51;14.60;99.90
8988;DHT22;4529;51.360;12.474;2023-05-24T10:42:00;14.60;99.90
8988;DHT22;4529;51.360;12.474;2023-05-24T10:47:07;14.60;99.90
8988;DHT22;4529;51.360;12.474;2023-05-24T10:52:11;14.70;99.90
8988;DHT22;4529;51.360;12.474;2023-05-24T10:57:15;14.90;99.90
8988;DHT22;4529;51.360;12.474;2023-05-24T11:02:19;14.70;99.90
8988;DHT22;4529;51.360;12.474;2023-05-24T11:07:23;14.60;99.90
8988;DHT22;4529;51.360;12.474;2023-05-24T11:12:29;14.50;99.90
8988;DHT22;4529;51.360;12.474;2023-05-24T11:17:31;14.50;99.90
8988;DHT22;4529;51.360;12.474;2023-05-24T11:22:35;14.60;99.90
8988;DHT22;4529;51.360;12.474;2023-05-24T11:27:45;14.70;99.90
8988;DHT22;4529;51.360;12.474;2023-05-24T11:32:49;15.00;99.90
8988;DHT22;4529;51.360;12.474;2023-05-24T11:37:54;15.10;99.90
8988;DHT22;4529;51.360;12.474;2023-05-24T11:42:58;15.30;99.90
8988;DHT22;4529;51.360;12.474;2023-05-24T11:48:05;15.30;99.90
8988;DHT22;4529;51.360;12.474;2023-05-24T11:53:18;15.30;99.90
8988;DHT22;4529;51.360;12.474;2023-05-24T11:58:37;15.40;99.90
8988;DHT22;4529;51.360;12.474;2023-05-24T12:03:35;15.50;99.90
8988;DHT22;4529;51.360;12.474;2023-05-24T12:08:39;15.40;99.90
8988;DHT22;4529;51.360;12.474;2023-05-24T12:13:42;15.50;99.90
8988;DHT22;4529;51.360;12.474;2023-05-24T12:18:46;15.40;99.90
8988;DHT22;4529;51.360;12.474;2023-05-24T12:23:49;15.60;99.90
8988;DHT22;4529;51.360;12.474;2023-05-24T12:28:53;15.50;99.90
8988;DHT22;4529;51.360;12.474;2023-05-24T12:33:56;15.50;99.90
8988;DHT22;4529;51.360;12.474;2023-05-24T12:39:03;15.90;99.90
8988;DHT22;4529;51.360;12.474;2023-05-24T12:44:03;16.00;99.90
8988;DHT22;4529;51.360;12.474;2023-05-24T12:49:06;15.90;99.90
8988;DHT22;4529;51.360;12.474;2023-05-24T12:54:10;15.80;99.90
8988;DHT22;4529;51.360;12.474;2023-05-24T12:59:13;15.70;99.90
8988;DHT22;4529;51.360;12.474;2023-05-24T13:04:17;16.00;99.90
8988;DHT22;4529;51.360;12.474;2023-05-24T13:09:20;16.10;99.90
8988;DHT22;4529;51.360;12.474;2023-05-24T13:14:24;16.20;99.90
8988;DHT22;4529;51.360;12.474;2023-05-24T13:19:27;15.90;99.90
8988;DHT22;4529;51.360;12.474;2023-05-24T13:24:36;15.90;99.90
8988;DHT22;4529;51.360;12.474;2023-05-24T13:29:39;15.70;99.90
8988;DHT22;4529;51.360;12.474;2023-05-24T13:34:43;15.70;99.90
8988;DHT22;4529;51.360;12.474;2023-05-24T13:39:46;15.80;99.90
8988;DHT22;4529;51.360;12.474;2023-05-24T13:44:50;15.80;99.90
8988;DHT22;4529;51.360;12.474;2023-05-24T13:49:53;15.80;99.90
8988;DHT22;4529;51.360;12.474;2023-05-24T13:54:57;15.70;99.90
8988;DHT22;4529;51.360;12.474;2023-05-24T14:00:00;16.00;99.90
8988;DHT22;4529;51.360;12.474;2023-05-24T14:05:05;16.50;99.90
8988;DHT22;4529;51.360;12.474;2023-05-24T14:10:08;16.50;99.90
8988;DHT22;4529;51.360;12.474;2023-05-24T14:15:12;16.30;99.90
8988;DHT22;4529;51.360;12.474;2023-05-24T14:20:16;16.30;99.90
8988;DHT22;4529;51.360;12.474;2023-05-24T14:25:20;16.60;99.90
8988;DHT22;4529;51.360;12.474;2023-05-24T14:30:27;17.00;99.90
8988;DHT22;4529;51.360;12.474;2023-05-24T14:35:31;17.00;99.90
8988;DHT22;4529;51.360;12.474;2023-05-24T14:40:34;16.90;99.90
8988;DHT22;4529;51.360;12.474;2023-05-24T14:45:38;16.60;99.90
8988;DHT22;4529;51.360;12.474;2023-05-24T14:50:41;16.30;99.90
8988;DHT22;4529;51.360;12.474;2023-05-24T14:55:44;16.20;99.90
8988;DHT22;4529;51.360;12.474;2023-05-24T15:00:48;16.30;99.90
8988;DHT22;4529;51.360;12.474;2023-05-24T15:05:51;16.20;99.90
8988;DHT22;4529;51.360;12.474;2023-05-24T15:10:55;16.30;99.90
8988;DHT22;4529;51.360;12.474;2023-05-24T15:15:58;16.70;99.90
8988;DHT22;4529;51.360;12.474;2023-05-24T15:21:02;16.90;99.90
8988;DHT22;4529;51.360;12.474;2023-05-24T15:26:05;17.20;99.90
8988;DHT22;4529;51.360;12.474;2023-05-24T15:31:09;17.50;99.90
8988;DHT22;4529;51.360;12.474;2023-05-24T15:36:12;17.60;99.90
8988;DHT22;4529;51.360;12.474;2023-05-24T15:41:16;17.70;99.90
8988;DHT22;4529;51.360;12.474;2023-05-24T15:46:22;17.60;99.90
8988;DHT22;4529;51.360;12.474;2023-05-24T15:51:25;17.60;99.90
8988;DHT22;4529;51.360;12.474;2023-05-24T15:56:29;17.50;99.90
8988;DHT22;4529;51.360;12.474;2023-05-24T16:01:34;17.50;99.90
8988;DHT22;4529;51.360;12.474;2023-05-24T16:06:38;17.50;99.90
8988;DHT22;4529;51.360;12.474;2023-05-24T16:11:42;17.40;99.90
8988;DHT22;4529;51.360;12.474;2023-05-24T16:16:46;17.30;99.90
8988;DHT22;4529;51.360;12.474;2023-05-24T16:21:50;17.20;99.90
8988;DHT22;4529;51.360;12.474;2023-05-24T16:26:55;17.20;99.90
8988;DHT22;4529;51.360;12.474;2023-05-24T16:31:58;17.20;99.90
8988;DHT22;4529;51.360;12.474;2023-05-24T16:37:02;17.20;99.90
8988;DHT22;4529;51.360;12.474;2023-05-24T16:42:07;17.30;99.90
8988;DHT22;4529;51.360;12.474;2023-05-24T16:47:11;17.40;99.90
8988;DHT22;4529;51.360;12.474;2023-05-24T16:52:15;17.40;99.90
8988;DHT22;4529;51.360;12.474;2023-05-24T16:57:19;17.40;99.90
8988;DHT22;4529;51.360;12.474;2023-05-24T17:02:23;17.50;99.90
8988;DHT22;4529;51.360;12.474;2023-05-24T17:07:27;17.50;99.90
8988;DHT22;4529;51.360;12.474;2023-05-24T17:12:31;17.50;99.90
8988;DHT22;4529;51.360;12.474;2023-05-24T17:17:35;17.50;99.90
8988;DHT22;4529;51.360;12.474;2023-05-24T17:22:39;17.40;99.90
8988;DHT22;4529;51.360;12.474;2023-05-24T17:27:42;17.40;99.90
8988;DHT22;4529;51.360;12.474;2023-05-24T17:32:46;17.40;99.90
8988;DHT22;4529;51.360;12.474;2023-05-24T17:37:49;17.30;99.90
8988;DHT22;4529;51.360;12.474;2023-05-24T17:42:53;17.30;99.90
8988;DHT22;4529;51.360;12.474;2023-05-24T17:47:56;17.20;99.90
8988;DHT22;4529;51.360;12.474;2023-05-24T17:53:00;17.20;99.90
8988;DHT22;4529;51.360;12.474;2023-05-24T17:58:03;17.20;99.90
8988;DHT22;4529;51.360;12.474;2023-05-24T18:03:07;17.10;99.90
8988;DHT22;4529;51.360;12.474;2023-05-24T18:08:10;17.20;99.90
8988;DHT22;4529;51.360;12.474;2023-05-24T18:13:14;17.10;99.90
8988;DHT22;4529;51.360;12.474;2023-05-24T18:18:17;17.00;99.90
8988;DHT22;4529;51.360;12.474;2023-05-24T18:23:20;16.90;99.90
8988;DHT22;4529;51.360;12.474;2023-05-24T18:28:24;15.90;99.90
8988;DHT22;4529;51.360;12.474;2023-05-24T18:33:27;15.60;99.90
8988;DHT22;4529;51.360;12.474;2023-05-24T18:38:34;15.40;99.90
8988;DHT22;4529;51.360;12.474;2023-05-24T18:43:37;15.10;99.90
8988;DHT22;4529;51.360;12.474;2023-05-24T18:48:43;14.90;99.90
8988;DHT22;4529;51.360;12.474;2023-05-24T18:53:47;14.80;99.90
8988;DHT22;4529;51.360;12.474;2023-05-24T18:58:50;14.60;99.90
8988;DHT22;4529;51.360;12.474;2023-05-24T19:03:55;14.20;99.90
8988;DHT22;4529;51.360;12.474;2023-05-24T19:08:59;14.00;99.90
8988;DHT22;4529;51.360;12.474;2023-05-24T19:14:03;13.80;99.90
8988;DHT22;4529;51.360;12.474;2023-05-24T19:19:06;13.80;99.90
8988;DHT22;4529;51.360;12.474;2023-05-24T19:24:10;13.60;99.90
8988;DHT22;4529;51.360;12.474;2023-05-24T19:29:14;13.30;99.90
8988;DHT22;4529;51.360;12.474;2023-05-24T19:34:18;13.10;99.90
8988;DHT22;4529;51.360;12.474;2023-05-24T19:39:22;12.90;99.90
8988;DHT22;4529;51.360;12.474;2023-05-24T19:44:26;12.90;99.90
8988;DHT22;4529;51.360;12.474;2023-05-24T19:49:29;12.80;99.90
8988;DHT22;4529;51.360;12.474;2023-05-24T19:54:33;12.60;99.90
8988;DHT22;4529;51.360;12.474;2023-05-24T19:59:36;12.40;99.90
8988;DHT22;4529;51.360;12.474;2023-05-24T20:04:40;12.30;99.90
8988;DHT22;4529;51.360;12.474;2023-05-24T20:09:44;11.90;99.90
8988;DHT22;4529;51.360;12.474;2023-05-24T20:14:48;11.70;99.90
8988;DHT22;4529;51.360;12.474;2023-05-24T20:19:52;11.60;99.90
8988;DHT22;4529;51.360;12.474;2023-05-24T20:24:56;11.40;99.90
8988;DHT22;4529;51.360;12.474;2023-05-24T20:30:00;11.40;99.90
8988;DHT22;4529;51.360;12.474;2023-05-24T20:35:05;11.40;99.90
8988;DHT22;4529;51.360;12.474;2023-05-24T20:40:08;11.30;99.90
8988;DHT22;4529;51.360;12.474;2023-05-24T20:45:12;11.40;99.90
8988;DHT22;4529;51.360;12.474;2023-05-24T20:50:15;11.20;99.90
8988;DHT22;4529;51.360;12.474;2023-05-24T20:55:18;11.20;99.90
8988;DHT22;4529;51.360;12.474;2023-05-24T21:00:22;11.20;99.90
8988;DHT22;4529;51.360;12.474;2023-05-24T21:05:25;11.10;99.90
8988;DHT22;4529;51.360;12.474;2023-05-24T21:10:29;11.00;99.90
8988;DHT22;4529;51.360;12.474;2023-05-24T21:15:33;10.90;99.90
8988;DHT22;4529;51.360;12.474;2023-05-24T21:20:36;10.80;99.90
8988;DHT22;4529;51.360;12.474;2023-05-24T21:25:39;10.80;99.90
8988;DHT22;4529;51.360;12.474;2023-05-24T21:30:43;10.70;99.90
8988;DHT22;4529;51.360;12.474;2023-05-24T21:35:46;10.70;99.90
8988;DHT22;4529;51.360;12.474;2023-05-24T21:40:50;10.60;99.90
8988;DHT22;4529;51.360;12.474;2023-05-24T21:45:53;10.50;99.90
8988;DHT22;4529;51.360;12.474;2023-05-24T21:50:57;10.50;99.90
8988;DHT22;4529;51.360;12.474;2023-05-24T21:56:00;10.60;99.90
8988;DHT22;4529;51.360;12.474;2023-05-24T22:01:04;10.70;99.90
8988;DHT22;4529;51.360;12.474;2023-05-24T22:06:08;10.80;99.90
8988;DHT22;4529;51.360;12.474;2023-05-24T22:11:11;10.80;99.90
8988;DHT22;4529;51.360;12.474;2023-05-24T22:16:15;10.80;99.90
8988;DHT22;4529;51.360;12.474;2023-05-24T22:21:19;10.70;99.90
8988;DHT22;4529;51.360;12.474;2023-05-24T22:26:22;10.70;99.90
8988;DHT22;4529;51.360;12.474;2023-05-24T22:31:26;10.70;99.90
8988;DHT22;4529;51.360;12.474;2023-05-24T22:36:30;10.60;99.90
8988;DHT22;4529;51.360;12.474;2023-05-24T22:41:33;10.60;99.90
8988;DHT22;4529;51.360;12.474;2023-05-24T22:46:36;10.60;99.90
8988;DHT22;4529;51.360;12.474;2023-05-24T22:51:40;10.50;99.90
8988;DHT22;4529;51.360;12.474;2023-05-24T22:56:43;10.50;99.90
8988;DHT22;4529;51.360;12.474;2023-05-24T23:01:47;10.50;99.90
8988;DHT22;4529;51.360;12.474;2023-05-24T23:06:50;10.40;99.90
8988;DHT22;4529;51.360;12.474;2023-05-24T23:11:54;10.30;99.90
8988;DHT22;4529;51.360;12.474;2023-05-24T23:16:57;10.30;99.90
8988;DHT22;4529;51.360;12.474;2023-05-24T23:22:01;10.30;99.90
8988;DHT22;4529;51.360;12.474;2023-05-24T23:27:07;10.20;99.90
8988;DHT22;4529;51.360;12.474;2023-05-24T23:32:10;10.10;99.90
8988;DHT22;4529;51.360;12.474;2023-05-24T23:37:14;10.10;99.90
8988;DHT22;4529;51.360;12.474;2023-05-24T23:42:17;10.10;99.90
8988;DHT22;4529;51.360;12.474;2023-05-24T23:47:21;10.10;99.90
8988;DHT22;4529;51.360;12.474;2023-05-24T23:52:24;10.00;99.90
8988;DHT22;4529;51.360;12.474;2023-05-24T23:57:28;10.00;99.90
